Terminal Aerodrome Forecast
Issued by NWS

Home | Current Version | Previous Version | Text Only | Print | Product List | Glossary On
Versions: 1 2 3 4 5 6 7 8 9 10 11 12 13 14 15 16 17 18 19 20 21 22 23 24 25 26 27 28 29 30 31 32
000
FTUS43 KDMX 300539
TAFFOD
TAF
KFOD 300539Z 3006/0106 07008KT P6SM SKC
     FM300900 10007KT 5SM BR BKN025 BKN050
     FM301500 13011KT P6SM SCT025 BKN100
     FM010000 14012KT P6SM VCSH BKN080=

USA.gov is the U.S. government's official web portal to all federal, state and local government web resources and services.